createdAt,value
2017-12-21T00:01:48.837Z,14.90
2017-12-21T00:04:18.592Z,14.50
2017-12-21T00:06:47.560Z,15.75
2017-12-21T00:09:16.532Z,14.80
2017-12-21T00:11:46.306Z,14.80
2017-12-21T00:14:15.291Z,15.30
2017-12-21T00:16:44.236Z,14.10
2017-12-21T00:19:13.200Z,14.43
2017-12-21T00:21:42.186Z,16.83
2017-12-21T00:24:11.184Z,16.30
2017-12-21T00:26:40.118Z,14.65
2017-12-21T00:29:09.065Z,13.82
2017-12-21T00:31:37.997Z,16.50
2017-12-21T00:34:06.936Z,14.23
2017-12-21T00:36:35.875Z,13.60
2017-12-21T00:39:05.686Z,15.27
2017-12-21T00:41:34.646Z,15.45
2017-12-21T00:44:03.660Z,13.90
2017-12-21T00:46:33.374Z,14.23
2017-12-21T00:49:03.042Z,14.02
2017-12-21T00:51:32.040Z,13.88
2017-12-21T00:54:01.008Z,13.60
2017-12-21T00:56:29.983Z,13.65
2017-12-21T00:58:58.904Z,14.65
2017-12-21T01:01:27.825Z,13.25
2017-12-21T01:03:57.552Z,13.70
2017-12-21T01:06:27.299Z,14.32
2017-12-21T01:08:56.269Z,13.77
2017-12-21T01:11:25.210Z,15.23
2017-12-21T01:13:54.219Z,15.20
2017-12-21T01:16:23.193Z,15.48
2017-12-21T01:18:52.210Z,15.70
2017-12-21T01:21:21.907Z,14.55
2017-12-21T01:23:50.884Z,15.07
2017-12-21T01:26:19.854Z,17.62
2017-12-21T01:28:48.891Z,17.48
2017-12-21T01:31:18.002Z,14.80
2017-12-21T01:33:47.732Z,14.30
2017-12-21T01:36:16.707Z,14.38
2017-12-21T01:38:46.388Z,15.00
2017-12-21T01:41:15.686Z,14.13
2017-12-21T01:43:45.548Z,14.63
2017-12-21T01:46:14.530Z,14.30
2017-12-21T01:48:43.528Z,12.98
2017-12-21T01:51:12.528Z,16.17
2017-12-21T01:53:41.478Z,14.65
2017-12-21T01:56:10.462Z,14.98
2017-12-21T01:58:39.448Z,15.00
2017-12-21T02:01:08.387Z,13.20
2017-12-21T02:03:37.296Z,14.50
2017-12-21T02:06:06.334Z,13.50
2017-12-21T02:08:35.294Z,15.20
2017-12-21T02:11:04.306Z,14.40
2017-12-21T02:13:34.059Z,14.50
2017-12-21T02:16:03.814Z,16.33
2017-12-21T02:19:51.940Z,15.30
2017-12-21T02:22:21.154Z,17.45
2017-12-21T02:24:50.601Z,14.65
2017-12-21T02:27:19.647Z,15.75
2017-12-21T02:29:48.696Z,15.82
2017-12-21T02:32:18.459Z,14.45
2017-12-21T02:34:48.021Z,14.27
2017-12-21T02:37:17.959Z,13.80
2017-12-21T02:39:47.060Z,13.48
2017-12-21T02:42:16.128Z,13.82
2017-12-21T02:44:45.918Z,13.50
2017-12-21T02:47:15.000Z,13.70
2017-12-21T02:49:44.089Z,12.68
2017-12-21T02:52:13.145Z,13.60
2017-12-21T02:54:42.250Z,14.13
2017-12-21T02:57:11.301Z,13.48
2017-12-21T02:59:41.128Z,12.45
2017-12-21T03:02:10.872Z,14.27
2017-12-21T03:04:40.232Z,11.50
2017-12-21T03:07:10.055Z,11.25
2017-12-21T03:09:39.955Z,12.82
2017-12-21T03:12:09.690Z,11.00
2017-12-21T03:14:38.751Z,12.13
2017-12-21T03:17:07.709Z,12.93
2017-12-21T03:19:36.715Z,13.23
2017-12-21T03:22:05.766Z,13.50
2017-12-21T03:24:35.557Z,13.57
2017-12-21T03:27:05.831Z,13.77
2017-12-21T03:29:34.863Z,12.05
2017-12-21T03:32:04.559Z,12.80
2017-12-21T03:34:33.486Z,11.57
2017-12-21T03:37:02.468Z,12.50
2017-12-21T03:39:32.233Z,13.50
2017-12-21T03:42:01.209Z,12.90
2017-12-21T03:44:30.243Z,12.95
2017-12-21T03:46:59.264Z,11.80
2017-12-21T03:49:28.224Z,13.48
2017-12-21T03:51:57.411Z,11.68
2017-12-21T03:54:26.364Z,10.95
2017-12-21T03:56:55.388Z,11.20
2017-12-21T03:59:25.099Z,11.63
2017-12-21T04:01:54.074Z,11.70
2017-12-21T04:04:23.059Z,11.50
2017-12-21T04:06:52.148Z,11.73
2017-12-21T04:09:21.138Z,11.90
2017-12-21T04:11:50.152Z,10.82
2017-12-21T04:14:19.168Z,12.15
2017-12-21T04:16:48.136Z,11.45
2017-12-21T04:19:17.089Z,10.77
2017-12-21T04:21:46.792Z,10.25
2017-12-21T04:24:16.020Z,10.30
2017-12-21T04:26:45.285Z,9.98
2017-12-21T04:29:15.293Z,9.95
2017-12-21T04:31:44.254Z,9.73
2017-12-21T04:34:13.201Z,9.95
2017-12-21T04:36:42.980Z,9.82
2017-12-21T04:39:12.682Z,9.10
2017-12-21T04:41:41.676Z,9.02
2017-12-21T04:44:11.432Z,9.68
2017-12-21T04:46:40.555Z,9.30
2017-12-21T04:49:09.564Z,9.35
2017-12-21T04:51:38.540Z,8.73
2017-12-21T04:54:07.519Z,9.52
2017-12-21T04:56:36.492Z,7.62
2017-12-21T04:59:05.537Z,9.05
2017-12-21T05:01:34.599Z,8.95
2017-12-21T05:04:03.570Z,8.15
2017-12-21T05:06:32.548Z,7.85
2017-12-21T05:09:02.290Z,8.95
2017-12-21T05:11:31.261Z,7.75
2017-12-21T05:14:00.290Z,8.88
2017-12-21T05:16:29.240Z,8.00
2017-12-21T05:18:58.948Z,8.63
2017-12-21T05:21:28.675Z,8.90
2017-12-21T05:23:57.652Z,8.90
2017-12-21T05:26:29.694Z,8.60
2017-12-21T05:28:58.636Z,9.32
2017-12-21T05:31:27.624Z,9.25
2017-12-21T05:33:56.579Z,8.68
2017-12-21T05:36:25.555Z,8.25
2017-12-21T05:38:54.505Z,9.15
2017-12-21T05:41:23.916Z,8.65
2017-12-21T05:43:53.806Z,8.15
2017-12-21T05:46:24.074Z,7.85
2017-12-21T05:48:53.070Z,7.85
2017-12-21T05:51:22.071Z,6.62
2017-12-21T05:53:51.077Z,7.80
2017-12-21T05:56:20.117Z,7.82
2017-12-21T05:58:49.061Z,7.90
2017-12-21T06:01:25.535Z,7.55
2017-12-21T06:03:56.311Z,8.45
2017-12-21T06:06:25.351Z,7.25
2017-12-21T06:08:54.270Z,8.50
2017-12-21T06:11:23.996Z,7.93
2017-12-21T06:13:53.007Z,7.97
2017-12-21T06:16:22.181Z,8.60
2017-12-21T06:18:51.995Z,9.00
2017-12-21T06:21:21.765Z,8.50
2017-12-21T06:23:50.790Z,8.80
2017-12-21T06:26:21.741Z,9.40
2017-12-21T06:28:50.859Z,10.35
2017-12-21T06:31:22.767Z,9.68
2017-12-21T06:33:52.019Z,8.77
2017-12-21T06:36:21.002Z,9.65
2017-12-21T06:38:51.042Z,8.43
2017-12-21T06:41:20.029Z,9.18
2017-12-21T06:43:49.057Z,11.15
2017-12-21T06:46:18.837Z,9.25
2017-12-21T06:48:47.859Z,9.68
2017-12-21T06:51:47.311Z,9.27
2017-12-21T06:54:16.315Z,9.30
2017-12-21T06:56:45.344Z,9.20
2017-12-21T06:59:14.362Z,10.13
2017-12-21T07:01:44.109Z,8.27
2017-12-21T07:04:13.077Z,9.88
2017-12-21T07:06:42.824Z,9.55
2017-12-21T07:09:11.861Z,9.57
2017-12-21T07:11:40.850Z,9.32
2017-12-21T07:14:10.778Z,9.98
2017-12-21T07:16:40.549Z,9.80
2017-12-21T07:19:09.537Z,10.15
2017-12-21T07:21:38.480Z,9.60
2017-12-21T07:24:08.215Z,8.98
2017-12-21T07:26:37.996Z,10.52
2017-12-21T07:29:07.966Z,10.18
2017-12-21T07:31:36.914Z,9.60
2017-12-21T07:34:06.691Z,9.75
2017-12-21T07:36:35.637Z,10.55
2017-12-21T07:39:05.444Z,10.98
2017-12-21T07:41:34.438Z,9.98
2017-12-21T07:44:03.484Z,10.55
2017-12-21T07:46:32.490Z,10.43
2017-12-21T07:49:02.263Z,10.13
2017-12-21T07:51:31.228Z,10.68
2017-12-21T07:54:00.206Z,10.25
2017-12-21T07:56:29.996Z,10.25
2017-12-21T07:58:58.951Z,10.38
2017-12-21T08:01:29.272Z,10.20
2017-12-21T08:03:58.568Z,9.32
2017-12-21T08:06:28.421Z,9.93
2017-12-21T08:08:58.297Z,9.70
2017-12-21T08:11:27.276Z,9.82
2017-12-21T08:13:56.288Z,10.00
2017-12-21T08:16:25.284Z,9.48
2017-12-21T08:18:55.030Z,9.38
2017-12-21T08:21:24.254Z,9.13
2017-12-21T08:23:53.272Z,8.75
2017-12-21T08:26:22.335Z,9.50
2017-12-21T08:28:51.643Z,8.10
2017-12-21T08:31:21.418Z,8.65
2017-12-21T08:33:51.286Z,8.63
2017-12-21T08:36:28.711Z,7.78
2017-12-21T08:39:00.132Z,9.10
2017-12-21T08:41:33.987Z,7.93
2017-12-21T08:44:02.984Z,9.70
2017-12-21T08:46:32.012Z,8.65
2017-12-21T08:49:07.617Z,9.00
2017-12-21T08:51:37.461Z,8.35
2017-12-21T08:54:06.668Z,8.27
2017-12-21T08:56:35.721Z,8.23
2017-12-21T08:59:04.876Z,6.45
2017-12-21T09:01:33.930Z,6.70
2017-12-21T09:04:03.135Z,6.82
2017-12-21T09:06:32.242Z,6.40
2017-12-21T09:09:01.386Z,6.95
2017-12-21T09:11:31.211Z,7.20
2017-12-21T09:14:00.241Z,7.32
2017-12-21T09:16:29.453Z,6.50
2017-12-21T09:18:58.570Z,7.12
2017-12-21T09:21:27.625Z,7.07
2017-12-21T09:23:57.373Z,6.97
2017-12-21T09:26:26.383Z,6.95
2017-12-21T09:28:55.399Z,7.43
2017-12-21T09:31:24.496Z,7.22
2017-12-21T09:33:54.334Z,7.35
2017-12-21T09:36:24.514Z,7.03
2017-12-21T09:38:54.363Z,6.82
2017-12-21T09:41:24.275Z,6.82
2017-12-21T09:43:53.450Z,6.25
2017-12-21T09:46:23.514Z,7.47
2017-12-21T09:48:52.871Z,7.57
2017-12-21T09:51:22.825Z,7.00
2017-12-21T09:53:52.190Z,7.22
2017-12-21T09:56:21.382Z,7.53
2017-12-21T09:58:50.506Z,6.90
2017-12-21T10:01:19.716Z,8.02
2017-12-21T10:03:48.660Z,7.15
2017-12-21T10:06:23.714Z,7.25
2017-12-21T10:08:53.643Z,7.97
2017-12-21T10:11:22.994Z,7.68
2017-12-21T10:13:52.955Z,7.53
2017-12-21T10:16:22.858Z,7.65
2017-12-21T10:21:27.407Z,7.87
2017-12-21T10:23:57.216Z,7.85
2017-12-21T10:26:31.543Z,8.73
2017-12-21T10:29:00.671Z,7.40
2017-12-21T10:31:29.740Z,8.20
2017-12-21T10:33:58.790Z,7.87
2017-12-21T10:36:33.058Z,7.85
2017-12-21T10:39:02.309Z,8.00
2017-12-21T10:41:32.200Z,8.70
2017-12-21T10:44:01.360Z,8.40
2017-12-21T10:46:32.354Z,8.63
2017-12-21T10:49:02.286Z,7.95
2017-12-21T10:51:31.638Z,8.25
2017-12-21T10:54:00.842Z,7.80
2017-12-21T10:56:30.746Z,9.32
2017-12-21T10:59:00.754Z,8.90
2017-12-21T11:01:29.837Z,8.20
2017-12-21T11:03:58.956Z,7.53
2017-12-21T11:06:27.982Z,8.60
2017-12-21T11:08:56.989Z,9.05
2017-12-21T11:11:26.838Z,8.40
2017-12-21T11:14:02.960Z,9.18
2017-12-21T11:16:32.205Z,8.80
2017-12-21T11:19:02.269Z,9.52
2017-12-21T11:21:31.897Z,9.40
2017-12-21T11:24:01.815Z,9.35
2017-12-21T11:26:31.904Z,8.82
2017-12-21T11:29:00.987Z,9.85
2017-12-21T11:31:30.118Z,9.20
2017-12-21T11:33:59.384Z,9.75
2017-12-21T11:36:28.755Z,9.80
2017-12-21T11:38:58.665Z,10.15
2017-12-21T11:41:27.732Z,10.52
2017-12-21T11:43:58.158Z,9.77
2017-12-21T11:46:27.574Z,10.02
2017-12-21T11:48:57.408Z,8.90
2017-12-21T11:51:29.551Z,8.63
2017-12-21T11:53:59.901Z,9.50
2017-12-21T11:56:29.271Z,9.07
2017-12-21T11:59:03.902Z,11.25
2017-12-21T12:01:34.148Z,10.23
2017-12-21T12:04:04.261Z,9.93
2017-12-21T12:06:35.008Z,11.18
2017-12-21T12:09:04.652Z,11.30
2017-12-21T12:11:34.712Z,9.80
2017-12-21T12:14:04.722Z,11.00
2017-12-21T12:16:33.996Z,9.65
2017-12-21T12:19:03.421Z,11.18
2017-12-21T12:21:32.697Z,10.60
2017-12-21T12:24:03.068Z,10.05
2017-12-21T12:26:32.659Z,10.30
2017-12-21T12:29:02.082Z,10.82
2017-12-21T12:31:31.235Z,10.38
2017-12-21T12:34:00.284Z,11.20
2017-12-21T12:36:29.320Z,9.60
2017-12-21T12:38:58.371Z,10.90
2017-12-21T12:41:27.408Z,10.60
2017-12-21T12:43:56.542Z,10.27
2017-12-21T12:46:25.941Z,11.18
2017-12-21T12:48:54.997Z,10.25
2017-12-21T12:51:25.045Z,10.18
2017-12-21T12:53:54.156Z,10.25
2017-12-21T12:56:23.315Z,10.23
2017-12-21T12:58:53.393Z,9.60
2017-12-21T13:01:22.468Z,9.77
2017-12-21T13:03:51.631Z,9.85
2017-12-21T13:06:20.719Z,8.85
2017-12-21T13:08:49.803Z,9.35
2017-12-21T13:11:19.339Z,9.75
2017-12-21T13:13:49.488Z,10.48
2017-12-21T13:16:19.017Z,9.80
2017-12-21T13:18:49.968Z,10.20
2017-12-21T13:21:19.718Z,9.40
2017-12-21T13:23:48.801Z,7.75
2017-12-21T13:26:18.659Z,7.93
2017-12-21T13:28:47.732Z,7.97
2017-12-21T13:31:16.765Z,7.35
2017-12-21T13:33:46.523Z,7.18
2017-12-21T13:36:15.543Z,8.30
2017-12-21T13:38:44.525Z,7.35
2017-12-21T13:41:14.533Z,7.30
2017-12-21T13:43:44.416Z,7.12
2017-12-21T13:46:13.652Z,7.28
2017-12-21T13:48:42.807Z,6.68
2017-12-21T13:51:11.871Z,6.90
2017-12-21T13:53:40.976Z,5.85
2017-12-21T13:56:10.104Z,5.97
2017-12-21T13:58:39.208Z,5.55
2017-12-21T14:01:09.194Z,5.80
2017-12-21T14:03:38.201Z,5.95
2017-12-21T14:06:08.514Z,5.75
2017-12-21T14:08:38.327Z,5.87
2017-12-21T14:11:07.408Z,5.82
2017-12-21T14:13:36.639Z,6.00
2017-12-21T14:16:09.418Z,6.05
2017-12-21T14:18:38.499Z,6.12
2017-12-21T14:21:07.584Z,5.97
2017-12-21T14:23:36.685Z,6.20
2017-12-21T14:26:05.915Z,5.95
2017-12-21T14:28:35.080Z,5.75
2017-12-21T14:31:04.223Z,6.15
2017-12-21T14:33:33.446Z,5.50
2017-12-21T14:36:02.796Z,5.53
2017-12-21T14:38:32.727Z,5.70
2017-12-21T14:41:01.900Z,5.00
2017-12-21T14:43:31.045Z,5.62
2017-12-21T14:46:01.692Z,4.75
2017-12-21T14:48:31.624Z,4.68
2017-12-21T14:51:00.839Z,5.40
2017-12-21T14:53:30.860Z,4.60
2017-12-21T14:55:59.876Z,4.60
2017-12-21T14:58:29.738Z,5.15
2017-12-21T15:00:58.748Z,4.35
2017-12-21T15:03:27.739Z,5.20
2017-12-21T15:05:56.847Z,4.43
2017-12-21T15:08:26.214Z,4.40
2017-12-21T15:10:55.361Z,4.35
2017-12-21T15:13:25.214Z,4.57
2017-12-21T15:15:54.522Z,4.25
2017-12-21T15:18:24.376Z,3.70
2017-12-21T15:20:54.900Z,4.10
2017-12-21T15:23:24.051Z,3.47
2017-12-21T15:25:53.910Z,4.07
2017-12-21T15:28:23.509Z,3.65
2017-12-21T15:30:52.584Z,4.20
2017-12-21T15:33:23.351Z,5.05
2017-12-21T15:35:52.442Z,4.20
2017-12-21T15:38:21.512Z,4.65
2017-12-21T15:40:50.707Z,4.35
2017-12-21T15:43:20.548Z,4.47
2017-12-21T15:45:49.536Z,4.22
2017-12-21T15:48:18.644Z,4.40
2017-12-21T15:50:47.696Z,4.80
2017-12-21T15:53:16.749Z,4.53
2017-12-21T15:55:46.555Z,5.15
2017-12-21T15:58:16.550Z,4.35
2017-12-21T16:00:46.470Z,5.00
2017-12-21T16:03:15.676Z,4.70
2017-12-21T16:05:45.732Z,4.57
2017-12-21T16:08:15.612Z,4.75
2017-12-21T16:10:45.635Z,4.78
2017-12-21T16:13:15.617Z,3.75
2017-12-21T16:15:45.665Z,4.28
2017-12-21T16:18:15.546Z,4.62
2017-12-21T16:20:44.987Z,4.75
2017-12-21T16:23:14.893Z,4.40
2017-12-21T16:25:44.779Z,5.72
2017-12-21T16:28:14.536Z,4.90
2017-12-21T16:30:44.042Z,4.85
2017-12-21T16:33:13.191Z,5.72
2017-12-21T16:35:43.200Z,4.90
2017-12-21T16:38:12.306Z,5.07
2017-12-21T16:40:41.446Z,4.93
2017-12-21T16:43:10.564Z,5.47
2017-12-21T16:45:40.525Z,5.10
2017-12-21T16:48:09.690Z,5.40
2017-12-21T16:50:38.970Z,5.18
2017-12-21T16:53:08.846Z,5.00
2017-12-21T16:55:38.726Z,5.12
2017-12-21T16:58:07.984Z,4.57
2017-12-21T17:00:37.262Z,4.55
2017-12-21T17:03:07.758Z,4.85
2017-12-21T17:05:37.051Z,4.35
2017-12-21T17:08:06.133Z,5.15
2017-12-21T17:10:35.974Z,5.90
2017-12-21T17:13:05.043Z,5.20
2017-12-21T17:15:34.179Z,5.68
2017-12-21T17:18:04.081Z,5.28
2017-12-21T17:20:36.983Z,5.47
2017-12-21T17:23:06.135Z,3.87
2017-12-21T17:25:35.209Z,5.30
2017-12-21T17:28:05.231Z,5.50
2017-12-21T17:30:34.424Z,4.70
2017-12-21T17:33:04.661Z,5.28
2017-12-21T17:35:33.808Z,4.82
2017-12-21T17:38:03.900Z,5.00
2017-12-21T17:40:33.042Z,5.60
2017-12-21T17:43:02.457Z,6.05
2017-12-21T17:45:31.548Z,5.80
2017-12-21T17:48:00.614Z,6.75
2017-12-21T17:50:30.505Z,6.53
2017-12-21T17:52:59.699Z,5.00
2017-12-21T17:55:28.808Z,4.80
2017-12-21T17:58:01.635Z,5.37
2017-12-21T18:00:30.719Z,5.25
2017-12-21T18:02:59.782Z,6.35
2017-12-21T18:05:29.687Z,6.20
2017-12-21T18:08:02.036Z,6.40
2017-12-21T18:10:31.069Z,7.25
2017-12-21T18:13:00.238Z,7.78
2017-12-21T18:15:29.415Z,7.60
2017-12-21T18:18:02.444Z,7.28
2017-12-21T18:20:32.358Z,6.47
2017-12-21T18:23:01.356Z,7.90
2017-12-21T18:25:31.253Z,8.00
2017-12-21T18:28:00.279Z,8.30
2017-12-21T18:30:30.114Z,8.10
2017-12-21T18:32:59.179Z,8.60
2017-12-21T18:35:29.002Z,8.13
2017-12-21T18:37:58.800Z,8.80
2017-12-21T18:40:28.733Z,8.40
2017-12-21T18:42:58.504Z,9.20
2017-12-21T18:45:28.598Z,9.32
2017-12-21T18:47:57.678Z,8.27
2017-12-21T18:50:27.509Z,9.00
2017-12-21T18:52:56.927Z,8.73
2017-12-21T18:55:26.352Z,8.90
2017-12-21T18:57:55.605Z,9.18
2017-12-21T19:00:25.639Z,8.65
2017-12-21T19:02:54.838Z,8.73
2017-12-21T19:05:24.052Z,9.30
2017-12-21T19:07:57.630Z,9.45
2017-12-21T19:10:26.723Z,9.75
2017-12-21T19:12:55.883Z,10.48
2017-12-21T19:15:30.788Z,9.32
2017-12-21T19:18:00.658Z,8.88
2017-12-21T19:20:33.256Z,8.80
2017-12-21T19:23:02.353Z,8.13
2017-12-21T19:25:31.409Z,9.65
2017-12-21T19:28:00.543Z,10.45
2017-12-21T19:30:29.660Z,10.23
2017-12-21T19:32:59.160Z,10.32
2017-12-21T19:35:28.426Z,10.18
2017-12-21T19:37:58.306Z,9.32
2017-12-21T19:40:27.788Z,9.75
2017-12-21T19:43:01.268Z,10.77
2017-12-21T19:45:31.303Z,10.70
2017-12-21T19:48:01.134Z,11.45
2017-12-21T19:50:31.385Z,9.35
2017-12-21T19:53:00.472Z,9.50
2017-12-21T19:55:29.659Z,9.95
2017-12-21T19:58:10.268Z,10.10
2017-12-21T20:00:40.548Z,10.77
2017-12-21T20:03:13.652Z,9.68
2017-12-21T20:05:42.686Z,10.65
2017-12-21T20:08:12.537Z,9.10
2017-12-21T20:10:42.340Z,10.00
2017-12-21T20:13:12.243Z,10.27
2017-12-21T20:15:41.299Z,9.82
2017-12-21T20:18:11.185Z,10.50
2017-12-21T20:20:40.287Z,11.07
2017-12-21T20:23:09.347Z,9.40
2017-12-21T20:25:39.123Z,9.73
2017-12-21T20:28:11.650Z,10.55
2017-12-21T20:30:43.584Z,9.68
2017-12-21T20:33:14.613Z,11.65
2017-12-21T20:35:43.683Z,11.38
2017-12-21T20:38:17.588Z,11.73
2017-12-21T20:40:46.825Z,12.05
2017-12-21T20:43:21.100Z,10.70
2017-12-21T20:45:50.196Z,11.35
2017-12-21T20:48:19.223Z,12.20
2017-12-21T20:50:49.092Z,12.73
2017-12-21T20:53:18.310Z,12.73
2017-12-21T20:55:47.379Z,11.30
2017-12-21T20:58:16.430Z,11.45
2017-12-21T21:00:45.619Z,11.25
2017-12-21T21:03:14.668Z,10.20
2017-12-21T21:05:43.700Z,11.85
2017-12-21T21:08:12.690Z,10.90
2017-12-21T21:10:41.698Z,12.05
2017-12-21T21:13:11.518Z,12.48
2017-12-21T21:15:40.593Z,13.32
2017-12-21T21:18:10.543Z,13.85
2017-12-21T21:20:40.403Z,12.98
2017-12-21T21:23:09.502Z,12.18
2017-12-21T21:25:38.598Z,13.30
2017-12-21T21:28:09.510Z,14.40
2017-12-21T21:30:38.610Z,13.93
2017-12-21T21:33:07.592Z,15.73
2017-12-21T21:35:36.628Z,14.30
2017-12-21T21:38:05.657Z,13.40
2017-12-21T21:40:35.444Z,15.18
2017-12-21T21:43:05.257Z,14.52
2017-12-21T21:45:34.300Z,13.77
2017-12-21T21:48:03.337Z,12.80
2017-12-21T21:50:32.339Z,13.38
2017-12-21T21:53:01.435Z,13.00
2017-12-21T21:55:30.786Z,13.75
2017-12-21T21:57:59.854Z,13.85
2017-12-21T22:00:30.489Z,14.70
2017-12-21T22:03:00.502Z,15.10
2017-12-21T22:05:30.400Z,12.70
2017-12-21T22:08:00.618Z,13.73
2017-12-21T22:10:29.891Z,12.25
2017-12-21T22:12:58.954Z,11.85
2017-12-21T22:15:27.993Z,12.80
2017-12-21T22:17:57.141Z,13.98
2017-12-21T22:20:26.175Z,13.25
2017-12-21T22:22:55.343Z,12.95
2017-12-21T22:25:24.367Z,12.85
2017-12-21T22:27:53.388Z,13.52
2017-12-21T22:30:22.385Z,13.80
2017-12-21T22:32:52.805Z,14.23
2017-12-21T22:35:22.098Z,13.05
2017-12-21T22:37:51.110Z,12.30
2017-12-21T22:40:20.917Z,13.32
2017-12-21T22:42:51.010Z,13.02
2017-12-21T22:45:20.164Z,12.80
2017-12-21T22:47:49.279Z,14.00
2017-12-21T22:50:19.266Z,13.35
2017-12-21T22:52:48.333Z,12.30
2017-12-21T22:55:17.332Z,11.45
2017-12-21T22:57:47.341Z,12.55
2017-12-21T23:00:25.305Z,12.82
2017-12-21T23:02:54.269Z,12.65
2017-12-21T23:05:23.280Z,12.07
2017-12-21T23:07:52.328Z,13.18
2017-12-21T23:10:22.242Z,12.85
2017-12-21T23:12:51.333Z,13.57
2017-12-21T23:15:21.117Z,13.85
2017-12-21T23:17:50.147Z,14.32
2017-12-21T23:20:19.910Z,13.77
2017-12-21T23:22:48.994Z,14.20
2017-12-21T23:25:18.024Z,12.23
2017-12-21T23:27:47.090Z,13.20
2017-12-21T23:30:16.108Z,12.40
2017-12-21T23:32:45.115Z,11.95
2017-12-21T23:35:14.210Z,13.45
2017-12-21T23:37:43.142Z,13.43
2017-12-21T23:40:12.215Z,11.40
2017-12-21T23:42:42.166Z,11.40
2017-12-21T23:45:11.148Z,12.68
2017-12-21T23:47:40.597Z,12.55
2017-12-21T23:50:09.669Z,13.20
2017-12-21T23:52:38.781Z,13.13
2017-12-21T23:55:07.836Z,14.73
2017-12-21T23:57:36.889Z,14.18
